sensor_id;sensor_type;location;lat;lon;timestamp;P1;durP1;ratioP1;P2;durP2;ratioP2
33022;SDS011;19390;51.460;5.710;2023-07-22T00:01:51;16.85;;;10.05;;
33022;SDS011;19390;51.460;5.710;2023-07-22T00:04:16;16.05;;;10.70;;
33022;SDS011;19390;51.460;5.710;2023-07-22T00:06:42;10.98;;;9.10;;
33022;SDS011;19390;51.460;5.710;2023-07-22T00:09:07;12.82;;;9.68;;
33022;SDS011;19390;51.460;5.710;2023-07-22T00:11:34;14.65;;;9.65;;
33022;SDS011;19390;51.460;5.710;2023-07-22T00:14:00;13.68;;;10.00;;
33022;SDS011;19390;51.460;5.710;2023-07-22T00:16:26;11.82;;;9.05;;
33022;SDS011;19390;51.460;5.710;2023-07-22T00:18:54;12.48;;;9.57;;
33022;SDS011;19390;51.460;5.710;2023-07-22T00:21:20;13.60;;;9.43;;
33022;SDS011;19390;51.460;5.710;2023-07-22T00:23:45;14.55;;;9.88;;
33022;SDS011;19390;51.460;5.710;2023-07-22T00:26:11;14.73;;;9.70;;
33022;SDS011;19390;51.460;5.710;2023-07-22T00:28:36;16.40;;;10.80;;
33022;SDS011;19390;51.460;5.710;2023-07-22T00:31:03;14.93;;;10.85;;
33022;SDS011;19390;51.460;5.710;2023-07-22T00:33:29;15.43;;;10.90;;
33022;SDS011;19390;51.460;5.710;2023-07-22T00:35:55;17.23;;;11.05;;
33022;SDS011;19390;51.460;5.710;2023-07-22T00:38:21;15.65;;;11.32;;
33022;SDS011;19390;51.460;5.710;2023-07-22T00:40:47;17.48;;;11.38;;
33022;SDS011;19390;51.460;5.710;2023-07-22T00:43:12;13.52;;;10.00;;
33022;SDS011;19390;51.460;5.710;2023-07-22T00:45:38;15.52;;;10.77;;
33022;SDS011;19390;51.460;5.710;2023-07-22T00:48:04;14.57;;;10.80;;
33022;SDS011;19390;51.460;5.710;2023-07-22T00:50:30;17.75;;;10.98;;
33022;SDS011;19390;51.460;5.710;2023-07-22T00:52:57;15.32;;;11.00;;
33022;SDS011;19390;51.460;5.710;2023-07-22T00:55:24;13.63;;;10.52;;
33022;SDS011;19390;51.460;5.710;2023-07-22T00:57:50;16.65;;;11.45;;
33022;SDS011;19390;51.460;5.710;2023-07-22T01:00:16;17.25;;;10.68;;
33022;SDS011;19390;51.460;5.710;2023-07-22T01:02:42;15.27;;;10.73;;
33022;SDS011;19390;51.460;5.710;2023-07-22T01:05:08;15.75;;;11.57;;
33022;SDS011;19390;51.460;5.710;2023-07-22T01:07:36;14.80;;;9.93;;
33022;SDS011;19390;51.460;5.710;2023-07-22T01:10:03;18.95;;;11.18;;
33022;SDS011;19390;51.460;5.710;2023-07-22T01:12:30;16.63;;;11.05;;
33022;SDS011;19390;51.460;5.710;2023-07-22T01:14:56;16.23;;;11.77;;
33022;SDS011;19390;51.460;5.710;2023-07-22T01:17:22;17.48;;;11.73;;
33022;SDS011;19390;51.460;5.710;2023-07-22T01:19:48;17.85;;;12.00;;
33022;SDS011;19390;51.460;5.710;2023-07-22T01:22:14;17.02;;;11.82;;
33022;SDS011;19390;51.460;5.710;2023-07-22T01:24:41;16.67;;;11.93;;
33022;SDS011;19390;51.460;5.710;2023-07-22T01:27:07;15.77;;;11.18;;
33022;SDS011;19390;51.460;5.710;2023-07-22T01:29:34;15.38;;;10.90;;
33022;SDS011;19390;51.460;5.710;2023-07-22T01:32:01;16.58;;;11.93;;
33022;SDS011;19390;51.460;5.710;2023-07-22T01:34:27;15.23;;;11.75;;
33022;SDS011;19390;51.460;5.710;2023-07-22T01:36:52;17.27;;;11.25;;
33022;SDS011;19390;51.460;5.710;2023-07-22T01:39:19;20.40;;;11.30;;
33022;SDS011;19390;51.460;5.710;2023-07-22T01:41:45;15.75;;;10.75;;
33022;SDS011;19390;51.460;5.710;2023-07-22T01:44:10;17.55;;;12.43;;
33022;SDS011;19390;51.460;5.710;2023-07-22T01:46:36;15.63;;;11.70;;
33022;SDS011;19390;51.460;5.710;2023-07-22T01:49:03;15.68;;;10.93;;
33022;SDS011;19390;51.460;5.710;2023-07-22T01:51:30;18.50;;;11.88;;
33022;SDS011;19390;51.460;5.710;2023-07-22T01:53:55;15.10;;;11.60;;
33022;SDS011;19390;51.460;5.710;2023-07-22T01:56:22;16.85;;;10.82;;
33022;SDS011;19390;51.460;5.710;2023-07-22T01:58:47;13.27;;;10.30;;
33022;SDS011;19390;51.460;5.710;2023-07-22T02:01:13;18.10;;;12.50;;
33022;SDS011;19390;51.460;5.710;2023-07-22T02:03:40;15.85;;;10.75;;
33022;SDS011;19390;51.460;5.710;2023-07-22T02:06:06;13.27;;;10.63;;
33022;SDS011;19390;51.460;5.710;2023-07-22T02:08:32;15.60;;;10.98;;
33022;SDS011;19390;51.460;5.710;2023-07-22T02:11:04;16.60;;;10.75;;
33022;SDS011;19390;51.460;5.710;2023-07-22T02:13:32;14.35;;;9.95;;
33022;SDS011;19390;51.460;5.710;2023-07-22T02:15:58;15.07;;;10.98;;
33022;SDS011;19390;51.460;5.710;2023-07-22T02:18:24;14.45;;;10.52;;
33022;SDS011;19390;51.460;5.710;2023-07-22T02:20:50;14.55;;;10.10;;
33022;SDS011;19390;51.460;5.710;2023-07-22T02:23:16;17.63;;;10.32;;
33022;SDS011;19390;51.460;5.710;2023-07-22T02:25:41;18.17;;;10.40;;
33022;SDS011;19390;51.460;5.710;2023-07-22T02:28:07;17.40;;;10.30;;
33022;SDS011;19390;51.460;5.710;2023-07-22T02:30:36;15.40;;;10.32;;
33022;SDS011;19390;51.460;5.710;2023-07-22T02:33:02;18.90;;;10.82;;
33022;SDS011;19390;51.460;5.710;2023-07-22T02:35:28;16.92;;;10.30;;
33022;SDS011;19390;51.460;5.710;2023-07-22T02:37:54;14.88;;;10.50;;
33022;SDS011;19390;51.460;5.710;2023-07-22T02:40:20;17.42;;;10.63;;
33022;SDS011;19390;51.460;5.710;2023-07-22T02:42:45;15.90;;;10.38;;
33022;SDS011;19390;51.460;5.710;2023-07-22T02:45:11;15.48;;;10.55;;
33022;SDS011;19390;51.460;5.710;2023-07-22T02:47:37;17.20;;;11.50;;
33022;SDS011;19390;51.460;5.710;2023-07-22T02:50:03;16.70;;;10.95;;
33022;SDS011;19390;51.460;5.710;2023-07-22T02:52:30;19.13;;;11.13;;
33022;SDS011;19390;51.460;5.710;2023-07-22T02:57:33;14.35;;;10.88;;
33022;SDS011;19390;51.460;5.710;2023-07-22T02:59:59;15.73;;;10.10;;
33022;SDS011;19390;51.460;5.710;2023-07-22T03:02:25;14.65;;;10.25;;
33022;SDS011;19390;51.460;5.710;2023-07-22T03:04:50;20.92;;;12.38;;
33022;SDS011;19390;51.460;5.710;2023-07-22T03:07:16;16.38;;;11.05;;
33022;SDS011;19390;51.460;5.710;2023-07-22T03:09:42;19.50;;;11.50;;
33022;SDS011;19390;51.460;5.710;2023-07-22T03:12:07;15.35;;;10.52;;
33022;SDS011;19390;51.460;5.710;2023-07-22T03:14:33;20.65;;;11.48;;
33022;SDS011;19390;51.460;5.710;2023-07-22T03:17:01;16.42;;;10.88;;
33022;SDS011;19390;51.460;5.710;2023-07-22T03:19:28;21.70;;;11.75;;
33022;SDS011;19390;51.460;5.710;2023-07-22T03:21:54;17.90;;;10.98;;
33022;SDS011;19390;51.460;5.710;2023-07-22T03:24:20;19.02;;;11.70;;
33022;SDS011;19390;51.460;5.710;2023-07-22T03:26:45;21.35;;;12.55;;
33022;SDS011;19390;51.460;5.710;2023-07-22T03:29:11;19.58;;;11.65;;
33022;SDS011;19390;51.460;5.710;2023-07-22T03:31:37;17.73;;;11.77;;
33022;SDS011;19390;51.460;5.710;2023-07-22T03:34:02;18.63;;;12.25;;
33022;SDS011;19390;51.460;5.710;2023-07-22T03:36:28;17.20;;;11.75;;
33022;SDS011;19390;51.460;5.710;2023-07-22T03:38:53;16.90;;;11.10;;
33022;SDS011;19390;51.460;5.710;2023-07-22T03:41:19;19.58;;;12.25;;
33022;SDS011;19390;51.460;5.710;2023-07-22T03:43:45;17.58;;;11.10;;
33022;SDS011;19390;51.460;5.710;2023-07-22T03:46:10;22.27;;;12.50;;
33022;SDS011;19390;51.460;5.710;2023-07-22T03:48:36;17.30;;;11.90;;
33022;SDS011;19390;51.460;5.710;2023-07-22T03:51:01;20.40;;;12.13;;
33022;SDS011;19390;51.460;5.710;2023-07-22T03:53:27;20.85;;;12.80;;
33022;SDS011;19390;51.460;5.710;2023-07-22T03:55:52;20.35;;;13.15;;
33022;SDS011;19390;51.460;5.710;2023-07-22T03:58:18;23.80;;;12.73;;
33022;SDS011;19390;51.460;5.710;2023-07-22T04:00:47;22.77;;;12.88;;
33022;SDS011;19390;51.460;5.710;2023-07-22T04:03:14;19.23;;;13.23;;
33022;SDS011;19390;51.460;5.710;2023-07-22T04:05:39;23.45;;;12.90;;
33022;SDS011;19390;51.460;5.710;2023-07-22T04:08:05;16.98;;;12.45;;
33022;SDS011;19390;51.460;5.710;2023-07-22T04:10:31;22.65;;;12.57;;
33022;SDS011;19390;51.460;5.710;2023-07-22T04:12:56;18.40;;;12.30;;
33022;SDS011;19390;51.460;5.710;2023-07-22T04:15:22;19.08;;;12.15;;
33022;SDS011;19390;51.460;5.710;2023-07-22T04:17:48;20.90;;;13.23;;
33022;SDS011;19390;51.460;5.710;2023-07-22T04:20:13;19.77;;;12.68;;
33022;SDS011;19390;51.460;5.710;2023-07-22T04:22:39;20.60;;;11.90;;
33022;SDS011;19390;51.460;5.710;2023-07-22T04:25:05;22.58;;;12.90;;
33022;SDS011;19390;51.460;5.710;2023-07-22T04:27:31;18.55;;;11.95;;
33022;SDS011;19390;51.460;5.710;2023-07-22T04:29:56;19.35;;;12.48;;
33022;SDS011;19390;51.460;5.710;2023-07-22T04:32:22;20.30;;;12.55;;
33022;SDS011;19390;51.460;5.710;2023-07-22T04:34:48;22.30;;;13.23;;
33022;SDS011;19390;51.460;5.710;2023-07-22T04:37:13;21.92;;;12.55;;
33022;SDS011;19390;51.460;5.710;2023-07-22T04:39:39;24.60;;;13.32;;
33022;SDS011;19390;51.460;5.710;2023-07-22T04:42:04;18.73;;;12.75;;
33022;SDS011;19390;51.460;5.710;2023-07-22T04:44:30;22.25;;;13.25;;
33022;SDS011;19390;51.460;5.710;2023-07-22T04:46:56;20.73;;;12.63;;
33022;SDS011;19390;51.460;5.710;2023-07-22T04:49:21;23.40;;;13.45;;
33022;SDS011;19390;51.460;5.710;2023-07-22T04:51:47;19.10;;;12.95;;
33022;SDS011;19390;51.460;5.710;2023-07-22T04:54:13;18.27;;;12.02;;
33022;SDS011;19390;51.460;5.710;2023-07-22T04:56:40;17.58;;;11.93;;
33022;SDS011;19390;51.460;5.710;2023-07-22T04:59:06;21.38;;;13.50;;
33022;SDS011;19390;51.460;5.710;2023-07-22T05:01:32;18.48;;;13.18;;
33022;SDS011;19390;51.460;5.710;2023-07-22T05:03:58;19.60;;;13.55;;
33022;SDS011;19390;51.460;5.710;2023-07-22T05:06:23;20.58;;;12.43;;
33022;SDS011;19390;51.460;5.710;2023-07-22T05:08:50;21.05;;;12.50;;
33022;SDS011;19390;51.460;5.710;2023-07-22T05:11:15;19.02;;;11.32;;
33022;SDS011;19390;51.460;5.710;2023-07-22T05:13:41;18.10;;;11.23;;
33022;SDS011;19390;51.460;5.710;2023-07-22T05:16:07;15.70;;;11.07;;
33022;SDS011;19390;51.460;5.710;2023-07-22T05:18:33;17.33;;;11.70;;
33022;SDS011;19390;51.460;5.710;2023-07-22T05:20:58;17.20;;;11.50;;
33022;SDS011;19390;51.460;5.710;2023-07-22T05:23:24;17.38;;;11.45;;
33022;SDS011;19390;51.460;5.710;2023-07-22T05:25:52;15.52;;;11.07;;
33022;SDS011;19390;51.460;5.710;2023-07-22T05:28:19;18.17;;;11.77;;
33022;SDS011;19390;51.460;5.710;2023-07-22T05:30:44;17.17;;;11.90;;
33022;SDS011;19390;51.460;5.710;2023-07-22T05:33:10;19.15;;;12.20;;
33022;SDS011;19390;51.460;5.710;2023-07-22T05:35:36;18.67;;;11.85;;
33022;SDS011;19390;51.460;5.710;2023-07-22T05:38:01;21.13;;;12.45;;
33022;SDS011;19390;51.460;5.710;2023-07-22T05:40:29;20.67;;;12.32;;
33022;SDS011;19390;51.460;5.710;2023-07-22T05:42:55;18.90;;;12.05;;
33022;SDS011;19390;51.460;5.710;2023-07-22T05:45:21;20.27;;;12.80;;
33022;SDS011;19390;51.460;5.710;2023-07-22T05:47:46;24.20;;;12.93;;
33022;SDS011;19390;51.460;5.710;2023-07-22T05:50:12;23.05;;;12.32;;
33022;SDS011;19390;51.460;5.710;2023-07-22T05:52:38;19.35;;;12.40;;
33022;SDS011;19390;51.460;5.710;2023-07-22T05:55:03;17.77;;;11.93;;
33022;SDS011;19390;51.460;5.710;2023-07-22T05:57:29;18.50;;;11.80;;
33022;SDS011;19390;51.460;5.710;2023-07-22T05:59:55;17.90;;;11.13;;
33022;SDS011;19390;51.460;5.710;2023-07-22T06:02:21;21.90;;;11.73;;
33022;SDS011;19390;51.460;5.710;2023-07-22T06:04:46;16.13;;;10.90;;
33022;SDS011;19390;51.460;5.710;2023-07-22T06:07:13;18.90;;;12.23;;
33022;SDS011;19390;51.460;5.710;2023-07-22T06:09:38;18.27;;;12.32;;
33022;SDS011;19390;51.460;5.710;2023-07-22T06:12:04;19.77;;;11.88;;
33022;SDS011;19390;51.460;5.710;2023-07-22T06:14:30;18.70;;;11.27;;
33022;SDS011;19390;51.460;5.710;2023-07-22T06:16:55;20.95;;;11.60;;
33022;SDS011;19390;51.460;5.710;2023-07-22T06:19:21;18.10;;;11.25;;
33022;SDS011;19390;51.460;5.710;2023-07-22T06:21:48;20.27;;;11.43;;
33022;SDS011;19390;51.460;5.710;2023-07-22T06:24:14;22.65;;;13.25;;
33022;SDS011;19390;51.460;5.710;2023-07-22T06:26:39;20.65;;;12.18;;
33022;SDS011;19390;51.460;5.710;2023-07-22T06:29:05;18.98;;;11.60;;
33022;SDS011;19390;51.460;5.710;2023-07-22T06:31:31;21.70;;;11.00;;
33022;SDS011;19390;51.460;5.710;2023-07-22T06:33:57;20.95;;;11.98;;
33022;SDS011;19390;51.460;5.710;2023-07-22T06:36:24;16.65;;;10.80;;
33022;SDS011;19390;51.460;5.710;2023-07-22T06:38:50;18.85;;;11.38;;
33022;SDS011;19390;51.460;5.710;2023-07-22T06:41:16;16.70;;;10.15;;
33022;SDS011;19390;51.460;5.710;2023-07-22T06:43:42;16.63;;;11.35;;
33022;SDS011;19390;51.460;5.710;2023-07-22T06:46:08;19.30;;;11.52;;
33022;SDS011;19390;51.460;5.710;2023-07-22T06:48:34;14.60;;;10.27;;
33022;SDS011;19390;51.460;5.710;2023-07-22T06:50:59;20.25;;;12.20;;
33022;SDS011;19390;51.460;5.710;2023-07-22T06:53:25;17.08;;;11.43;;
33022;SDS011;19390;51.460;5.710;2023-07-22T06:55:51;17.65;;;11.25;;
33022;SDS011;19390;51.460;5.710;2023-07-22T06:58:17;17.58;;;11.95;;
33022;SDS011;19390;51.460;5.710;2023-07-22T07:00:44;18.63;;;11.55;;
33022;SDS011;19390;51.460;5.710;2023-07-22T07:03:09;18.52;;;10.57;;
33022;SDS011;19390;51.460;5.710;2023-07-22T07:05:35;19.85;;;11.40;;
33022;SDS011;19390;51.460;5.710;2023-07-22T07:08:01;23.65;;;12.48;;
33022;SDS011;19390;51.460;5.710;2023-07-22T07:10:26;21.92;;;12.35;;
33022;SDS011;19390;51.460;5.710;2023-07-22T07:12:52;17.20;;;10.70;;
33022;SDS011;19390;51.460;5.710;2023-07-22T07:15:17;21.42;;;11.95;;
33022;SDS011;19390;51.460;5.710;2023-07-22T07:17:43;16.67;;;11.20;;
33022;SDS011;19390;51.460;5.710;2023-07-22T07:20:09;16.10;;;9.68;;
33022;SDS011;19390;51.460;5.710;2023-07-22T07:22:35;22.20;;;11.35;;
33022;SDS011;19390;51.460;5.710;2023-07-22T07:25:00;18.13;;;10.77;;
33022;SDS011;19390;51.460;5.710;2023-07-22T07:27:27;20.20;;;12.32;;
33022;SDS011;19390;51.460;5.710;2023-07-22T07:29:52;16.73;;;10.85;;
33022;SDS011;19390;51.460;5.710;2023-07-22T07:32:18;15.27;;;9.98;;
33022;SDS011;19390;51.460;5.710;2023-07-22T07:34:44;16.10;;;9.68;;
33022;SDS011;19390;51.460;5.710;2023-07-22T07:37:09;18.08;;;11.73;;
33022;SDS011;19390;51.460;5.710;2023-07-22T07:39:35;18.80;;;10.13;;
33022;SDS011;19390;51.460;5.710;2023-07-22T07:42:00;18.60;;;10.20;;
33022;SDS011;19390;51.460;5.710;2023-07-22T07:44:26;16.92;;;9.15;;
33022;SDS011;19390;51.460;5.710;2023-07-22T07:46:51;15.80;;;10.05;;
33022;SDS011;19390;51.460;5.710;2023-07-22T07:49:17;19.30;;;10.98;;
33022;SDS011;19390;51.460;5.710;2023-07-22T07:51:43;17.27;;;10.43;;
33022;SDS011;19390;51.460;5.710;2023-07-22T07:54:08;22.02;;;10.43;;
33022;SDS011;19390;51.460;5.710;2023-07-22T07:56:34;18.10;;;11.15;;
33022;SDS011;19390;51.460;5.710;2023-07-22T07:59:00;14.93;;;9.98;;
33022;SDS011;19390;51.460;5.710;2023-07-22T08:01:27;17.70;;;11.60;;
33022;SDS011;19390;51.460;5.710;2023-07-22T08:03:53;20.50;;;10.00;;
33022;SDS011;19390;51.460;5.710;2023-07-22T08:06:19;18.83;;;9.82;;
33022;SDS011;19390;51.460;5.710;2023-07-22T08:08:44;16.77;;;10.63;;
33022;SDS011;19390;51.460;5.710;2023-07-22T08:11:11;18.30;;;9.88;;
33022;SDS011;19390;51.460;5.710;2023-07-22T08:13:40;13.93;;;9.50;;
33022;SDS011;19390;51.460;5.710;2023-07-22T08:16:08;20.40;;;9.77;;
33022;SDS011;19390;51.460;5.710;2023-07-22T08:18:35;18.17;;;9.23;;
33022;SDS011;19390;51.460;5.710;2023-07-22T08:21:02;15.77;;;9.32;;
33022;SDS011;19390;51.460;5.710;2023-07-22T08:23:29;14.48;;;9.27;;
33022;SDS011;19390;51.460;5.710;2023-07-22T08:25:55;14.48;;;8.65;;
33022;SDS011;19390;51.460;5.710;2023-07-22T08:28:20;12.88;;;8.25;;
33022;SDS011;19390;51.460;5.710;2023-07-22T08:30:49;15.10;;;8.50;;
33022;SDS011;19390;51.460;5.710;2023-07-22T08:33:15;16.70;;;9.45;;
33022;SDS011;19390;51.460;5.710;2023-07-22T08:35:41;17.35;;;9.55;;
33022;SDS011;19390;51.460;5.710;2023-07-22T08:38:07;11.95;;;8.02;;
33022;SDS011;19390;51.460;5.710;2023-07-22T08:40:37;14.45;;;8.05;;
33022;SDS011;19390;51.460;5.710;2023-07-22T08:43:05;16.38;;;8.20;;
33022;SDS011;19390;51.460;5.710;2023-07-22T08:45:33;14.35;;;7.93;;
33022;SDS011;19390;51.460;5.710;2023-07-22T08:48:02;12.25;;;7.47;;
33022;SDS011;19390;51.460;5.710;2023-07-22T08:51:17;14.85;;;8.93;;
33022;SDS011;19390;51.460;5.710;2023-07-22T08:53:29;11.68;;;6.97;;
33022;SDS011;19390;51.460;5.710;2023-07-22T08:55:55;11.48;;;7.57;;
33022;SDS011;19390;51.460;5.710;2023-07-22T08:58:21;13.63;;;7.20;;
33022;SDS011;19390;51.460;5.710;2023-07-22T09:00:48;12.57;;;6.95;;
33022;SDS011;19390;51.460;5.710;2023-07-22T09:03:15;13.25;;;7.60;;
33022;SDS011;19390;51.460;5.710;2023-07-22T09:05:41;11.48;;;6.30;;
33022;SDS011;19390;51.460;5.710;2023-07-22T09:08:08;12.32;;;6.80;;
33022;SDS011;19390;51.460;5.710;2023-07-22T09:10:34;10.80;;;6.85;;
33022;SDS011;19390;51.460;5.710;2023-07-22T09:13:01;11.43;;;6.50;;
33022;SDS011;19390;51.460;5.710;2023-07-22T09:15:27;11.68;;;5.47;;
33022;SDS011;19390;51.460;5.710;2023-07-22T09:17:53;8.30;;;6.25;;
33022;SDS011;19390;51.460;5.710;2023-07-22T09:20:20;8.43;;;5.97;;
33022;SDS011;19390;51.460;5.710;2023-07-22T09:22:47;6.18;;;5.13;;
33022;SDS011;19390;51.460;5.710;2023-07-22T09:25:15;12.40;;;6.45;;
33022;SDS011;19390;51.460;5.710;2023-07-22T09:27:41;12.73;;;5.90;;
33022;SDS011;19390;51.460;5.710;2023-07-22T09:30:26;10.00;;;5.45;;
33022;SDS011;19390;51.460;5.710;2023-07-22T09:32:58;10.95;;;5.10;;
33022;SDS011;19390;51.460;5.710;2023-07-22T09:35:25;8.85;;;5.03;;
33022;SDS011;19390;51.460;5.710;2023-07-22T09:37:53;12.65;;;5.50;;
33022;SDS011;19390;51.460;5.710;2023-07-22T09:42:48;8.65;;;5.35;;
33022;SDS011;19390;51.460;5.710;2023-07-22T09:59:26;8.15;;;4.72;;
33022;SDS011;19390;51.460;5.710;2023-07-22T10:01:55;9.95;;;4.78;;
33022;SDS011;19390;51.460;5.710;2023-07-22T10:04:23;10.00;;;4.65;;
33022;SDS011;19390;51.460;5.710;2023-07-22T10:06:53;8.57;;;4.40;;
33022;SDS011;19390;51.460;5.710;2023-07-22T10:09:19;8.65;;;4.47;;
33022;SDS011;19390;51.460;5.710;2023-07-22T10:11:47;7.47;;;5.05;;
33022;SDS011;19390;51.460;5.710;2023-07-22T10:14:13;9.98;;;4.75;;
33022;SDS011;19390;51.460;5.710;2023-07-22T10:16:39;6.90;;;3.80;;
33022;SDS011;19390;51.460;5.710;2023-07-22T10:19:06;5.65;;;3.42;;
33022;SDS011;19390;51.460;5.710;2023-07-22T10:21:33;8.45;;;3.92;;
33022;SDS011;19390;51.460;5.710;2023-07-22T10:24:01;10.02;;;3.60;;
33022;SDS011;19390;51.460;5.710;2023-07-22T10:26:27;7.20;;;4.20;;
33022;SDS011;19390;51.460;5.710;2023-07-22T10:28:53;14.48;;;4.60;;
33022;SDS011;19390;51.460;5.710;2023-07-22T10:31:21;7.15;;;4.20;;
33022;SDS011;19390;51.460;5.710;2023-07-22T10:33:47;10.77;;;3.42;;
33022;SDS011;19390;51.460;5.710;2023-07-22T10:36:14;5.45;;;3.50;;
33022;SDS011;19390;51.460;5.710;2023-07-22T10:38:41;8.30;;;3.42;;
33022;SDS011;19390;51.460;5.710;2023-07-22T10:41:13;6.20;;;3.42;;
33022;SDS011;19390;51.460;5.710;2023-07-22T10:43:42;8.27;;;3.55;;
33022;SDS011;19390;51.460;5.710;2023-07-22T10:46:19;7.75;;;3.70;;
33022;SDS011;19390;51.460;5.710;2023-07-22T10:49:15;5.50;;;3.33;;
33022;SDS011;19390;51.460;5.710;2023-07-22T10:51:41;6.60;;;3.50;;
33022;SDS011;19390;51.460;5.710;2023-07-22T10:54:14;8.63;;;3.05;;
33022;SDS011;19390;51.460;5.710;2023-07-22T10:56:55;5.13;;;3.15;;
33022;SDS011;19390;51.460;5.710;2023-07-22T10:59:26;9.05;;;3.20;;
33022;SDS011;19390;51.460;5.710;2023-07-22T11:01:52;5.97;;;2.83;;
33022;SDS011;19390;51.460;5.710;2023-07-22T11:04:25;4.70;;;2.53;;
33022;SDS011;19390;51.460;5.710;2023-07-22T11:07:04;3.17;;;2.15;;
33022;SDS011;19390;51.460;5.710;2023-07-22T11:12:16;5.95;;;2.35;;
33022;SDS011;19390;51.460;5.710;2023-07-22T11:14:47;5.63;;;2.22;;
33022;SDS011;19390;51.460;5.710;2023-07-22T11:17:37;6.80;;;2.50;;
33022;SDS011;19390;51.460;5.710;2023-07-22T11:20:03;4.78;;;2.05;;
33022;SDS011;19390;51.460;5.710;2023-07-22T11:22:29;4.13;;;2.10;;
33022;SDS011;19390;51.460;5.710;2023-07-22T11:24:55;3.90;;;1.75;;
33022;SDS011;19390;51.460;5.710;2023-07-22T11:27:23;3.50;;;1.95;;
33022;SDS011;19390;51.460;5.710;2023-07-22T11:29:49;5.53;;;1.67;;
33022;SDS011;19390;51.460;5.710;2023-07-22T11:32:15;6.25;;;1.77;;
33022;SDS011;19390;51.460;5.710;2023-07-22T11:34:42;2.80;;;1.98;;
33022;SDS011;19390;51.460;5.710;2023-07-22T11:37:09;2.70;;;1.55;;
33022;SDS011;19390;51.460;5.710;2023-07-22T11:39:35;4.45;;;1.55;;
33022;SDS011;19390;51.460;5.710;2023-07-22T11:42:02;4.55;;;1.85;;
33022;SDS011;19390;51.460;5.710;2023-07-22T11:44:29;3.38;;;1.63;;
33022;SDS011;19390;51.460;5.710;2023-07-22T11:47:03;6.40;;;1.90;;
33022;SDS011;19390;51.460;5.710;2023-07-22T11:49:30;2.58;;;1.85;;
33022;SDS011;19390;51.460;5.710;2023-07-22T11:52:02;4.50;;;2.00;;
33022;SDS011;19390;51.460;5.710;2023-07-22T11:54:30;5.53;;;2.10;;
33022;SDS011;19390;51.460;5.710;2023-07-22T11:57:21;4.13;;;1.70;;
33022;SDS011;19390;51.460;5.710;2023-07-22T11:59:52;3.03;;;1.73;;
33022;SDS011;19390;51.460;5.710;2023-07-22T12:02:24;4.50;;;1.73;;
33022;SDS011;19390;51.460;5.710;2023-07-22T12:07:25;3.22;;;1.98;;
33022;SDS011;19390;51.460;5.710;2023-07-22T12:09:51;8.15;;;1.88;;
33022;SDS011;19390;51.460;5.710;2023-07-22T12:12:18;4.60;;;1.77;;
33022;SDS011;19390;51.460;5.710;2023-07-22T12:14:43;4.53;;;1.80;;
33022;SDS011;19390;51.460;5.710;2023-07-22T12:17:09;4.80;;;1.58;;
33022;SDS011;19390;51.460;5.710;2023-07-22T12:19:35;3.75;;;1.80;;
33022;SDS011;19390;51.460;5.710;2023-07-22T12:22:01;3.50;;;1.90;;
33022;SDS011;19390;51.460;5.710;2023-07-22T12:24:27;2.63;;;1.52;;
33022;SDS011;19390;51.460;5.710;2023-07-22T12:26:53;9.02;;;1.90;;
33022;SDS011;19390;51.460;5.710;2023-07-22T12:29:19;3.75;;;1.90;;
33022;SDS011;19390;51.460;5.710;2023-07-22T12:31:45;1.88;;;1.52;;
33022;SDS011;19390;51.460;5.710;2023-07-22T12:34:11;4.60;;;1.95;;
33022;SDS011;19390;51.460;5.710;2023-07-22T12:36:36;3.25;;;1.70;;
33022;SDS011;19390;51.460;5.710;2023-07-22T12:39:02;4.68;;;1.67;;
33022;SDS011;19390;51.460;5.710;2023-07-22T12:41:28;7.00;;;2.08;;
33022;SDS011;19390;51.460;5.710;2023-07-22T12:43:53;3.53;;;1.90;;
33022;SDS011;19390;51.460;5.710;2023-07-22T12:46:19;4.82;;;2.10;;
33022;SDS011;19390;51.460;5.710;2023-07-22T12:48:44;5.70;;;1.98;;
33022;SDS011;19390;51.460;5.710;2023-07-22T12:51:10;4.32;;;1.98;;
33022;SDS011;19390;51.460;5.710;2023-07-22T12:53:36;6.45;;;2.25;;
33022;SDS011;19390;51.460;5.710;2023-07-22T12:56:01;3.72;;;2.10;;
33022;SDS011;19390;51.460;5.710;2023-07-22T12:58:28;4.03;;;2.17;;
33022;SDS011;19390;51.460;5.710;2023-07-22T13:00:54;4.32;;;1.90;;
33022;SDS011;19390;51.460;5.710;2023-07-22T13:03:19;3.03;;;1.92;;
33022;SDS011;19390;51.460;5.710;2023-07-22T13:05:45;3.85;;;1.92;;
33022;SDS011;19390;51.460;5.710;2023-07-22T13:08:10;4.20;;;1.90;;
33022;SDS011;19390;51.460;5.710;2023-07-22T13:10:36;4.95;;;2.28;;
33022;SDS011;19390;51.460;5.710;2023-07-22T13:13:04;3.00;;;1.83;;
33022;SDS011;19390;51.460;5.710;2023-07-22T13:15:30;6.07;;;2.10;;
33022;SDS011;19390;51.460;5.710;2023-07-22T13:17:56;2.85;;;1.88;;
33022;SDS011;19390;51.460;5.710;2023-07-22T13:20:22;4.03;;;2.03;;
33022;SDS011;19390;51.460;5.710;2023-07-22T13:22:48;5.30;;;1.67;;
33022;SDS011;19390;51.460;5.710;2023-07-22T13:25:13;2.90;;;1.95;;
33022;SDS011;19390;51.460;5.710;2023-07-22T13:27:39;3.15;;;1.80;;
33022;SDS011;19390;51.460;5.710;2023-07-22T13:30:08;3.45;;;1.77;;
33022;SDS011;19390;51.460;5.710;2023-07-22T13:32:34;2.67;;;1.70;;
33022;SDS011;19390;51.460;5.710;2023-07-22T13:35:00;2.80;;;1.50;;
33022;SDS011;19390;51.460;5.710;2023-07-22T13:37:25;2.30;;;1.73;;
33022;SDS011;19390;51.460;5.710;2023-07-22T13:39:51;2.40;;;1.77;;
33022;SDS011;19390;51.460;5.710;2023-07-22T13:42:18;3.50;;;1.40;;
33022;SDS011;19390;51.460;5.710;2023-07-22T13:44:44;3.22;;;2.10;;
33022;SDS011;19390;51.460;5.710;2023-07-22T13:47:09;5.22;;;1.40;;
33022;SDS011;19390;51.460;5.710;2023-07-22T13:49:35;2.25;;;1.50;;
33022;SDS011;19390;51.460;5.710;2023-07-22T13:52:00;2.28;;;1.67;;
33022;SDS011;19390;51.460;5.710;2023-07-22T13:54:26;4.28;;;1.80;;
33022;SDS011;19390;51.460;5.710;2023-07-22T13:56:52;3.10;;;1.48;;
33022;SDS011;19390;51.460;5.710;2023-07-22T13:59:17;2.22;;;1.40;;
33022;SDS011;19390;51.460;5.710;2023-07-22T14:01:43;2.40;;;1.40;;
33022;SDS011;19390;51.460;5.710;2023-07-22T14:04:08;4.38;;;1.30;;
33022;SDS011;19390;51.460;5.710;2023-07-22T14:06:34;2.42;;;1.75;;
33022;SDS011;19390;51.460;5.710;2023-07-22T14:08:59;5.63;;;1.45;;
33022;SDS011;19390;51.460;5.710;2023-07-22T14:11:25;4.93;;;1.40;;
33022;SDS011;19390;51.460;5.710;2023-07-22T14:13:51;3.42;;;1.25;;
33022;SDS011;19390;51.460;5.710;2023-07-22T14:16:17;2.25;;;1.40;;
33022;SDS011;19390;51.460;5.710;2023-07-22T14:18:42;3.05;;;1.25;;
33022;SDS011;19390;51.460;5.710;2023-07-22T14:21:08;4.10;;;1.23;;
33022;SDS011;19390;51.460;5.710;2023-07-22T14:23:35;2.95;;;1.55;;
33022;SDS011;19390;51.460;5.710;2023-07-22T14:26:01;2.15;;;1.40;;
33022;SDS011;19390;51.460;5.710;2023-07-22T14:28:27;1.67;;;1.10;;
33022;SDS011;19390;51.460;5.710;2023-07-22T14:30:53;3.15;;;1.10;;
33022;SDS011;19390;51.460;5.710;2023-07-22T14:33:18;3.38;;;1.45;;
33022;SDS011;19390;51.460;5.710;2023-07-22T14:35:44;1.92;;;1.40;;
33022;SDS011;19390;51.460;5.710;2023-07-22T14:38:09;5.75;;;1.75;;
33022;SDS011;19390;51.460;5.710;2023-07-22T14:40:36;5.65;;;2.70;;
33022;SDS011;19390;51.460;5.710;2023-07-22T14:43:02;3.67;;;2.40;;
33022;SDS011;19390;51.460;5.710;2023-07-22T14:45:27;3.28;;;1.60;;
33022;SDS011;19390;51.460;5.710;2023-07-22T14:47:53;3.33;;;1.60;;
33022;SDS011;19390;51.460;5.710;2023-07-22T14:50:19;2.35;;;1.42;;
33022;SDS011;19390;51.460;5.710;2023-07-22T14:52:44;5.95;;;1.75;;
33022;SDS011;19390;51.460;5.710;2023-07-22T14:55:10;6.82;;;1.67;;